Terminal Aerodrome Forecast
Issued by NWS

Home | Current Version | Previous Version | Graphics & Text | Print | Product List | Glossary On
Versions: 1 2 3 4 5 6 7 8 9 10 11 12 13 14 15 16 17 18 19
123
FTUS43 KABR 150310 AAB
TAFATY
TAF AMD
KATY 150310Z 1503/1524 34009KT P6SM -RA BKN010 OVC016
     FM150500 33012KT P6SM BKN035
     FM151200 29006KT 4SM BR FEW150
     FM151700 25010KT P6SM SCT200=

USA.gov is the U.S. government's official web portal to all federal, state and local government web resources and services.